Time;durP1;ratioP1;P1;durP2;ratioP2;P2;SDS_P1;SDS_P2;PMS_P1;PMS_P2;Temp;Humidity;BMP_temperature;BMP_pressure;BME280_temperature;BME280_humidity;BME280_pressure;Samples;Min_cycle;Max_cycle;Signal;HPM_P1;HPM_P2
2022/06/13 00:02:06;;;;;;;6.67;6.07;;;19.90;99.90;;;;;;10400827;28;20213;-78
2022/06/13 00:07:08;;;;;;;5.97;5.57;;;19.80;99.90;;;;;;10392792;28;20218;-79
2022/06/13 00:12:10;;;;;;;6.13;5.73;;;19.60;99.90;;;;;;10396964;28;20212;-78
2022/06/13 00:17:16;;;;;;;6.23;5.63;;;19.60;99.90;;;;;;10372102;28;20229;-81
2022/06/13 00:22:19;;;;;;;6.20;5.80;;;19.60;99.90;;;;;;10372295;28;20206;-78
2022/06/13 00:27:21;;;;;;;6.00;5.60;;;19.60;99.90;;;;;;10377613;28;20776;-78
2022/06/13 00:32:24;;;;;;;6.03;5.63;;;19.50;99.90;;;;;;10406089;28;20252;-77
2022/06/13 00:37:26;;;;;;;5.73;5.30;;;19.50;99.90;;;;;;10397396;28;20644;-79
2022/06/13 00:42:28;;;;;;;6.13;5.57;;;19.50;99.90;;;;;;10403481;28;20376;-79
2022/06/13 00:47:32;;;;;;;5.90;5.50;;;19.40;99.90;;;;;;10404502;28;20225;-78
2022/06/13 00:52:40;;;;;;;5.87;5.47;;;19.30;99.90;;;;;;10406333;28;20289;-77
2022/06/13 00:57:42;;;;;;;5.70;5.23;;;19.30;99.90;;;;;;10400766;28;20940;-76
2022/06/13 01:02:48;;;;;;;7.87;5.90;;;19.30;99.90;;;;;;10395927;28;20271;-80
2022/06/13 01:07:52;;;;;;;6.80;6.20;;;19.30;99.90;;;;;;10402543;28;20224;-76
2022/06/13 01:12:55;;;;;;;6.57;5.93;;;19.40;99.90;;;;;;10391463;28;20225;-78
2022/06/13 01:18:13;;;;;;;5.70;5.33;;;19.40;99.90;;;;;;10404753;28;20262;-76
2022/06/13 01:23:58;;;;;;;5.87;5.40;;;19.40;99.90;;;;;;10406819;28;20598;-78
2022/06/13 01:29:19;;;;;;;6.17;5.57;;;19.50;99.90;;;;;;10389570;28;20223;-78
2022/06/13 01:34:34;;;;;;;5.60;5.10;;;19.60;99.90;;;;;;10400619;28;20212;-78
2022/06/13 01:39:46;;;;;;;5.53;5.13;;;19.60;99.90;;;;;;10404274;28;20336;-77
2022/06/13 01:44:59;;;;;;;5.70;5.30;;;19.60;99.90;;;;;;10408106;28;20221;-81
2022/06/13 01:50:18;;;;;;;5.70;5.20;;;19.60;99.90;;;;;;10397024;28;20559;-78
2022/06/13 01:55:28;;;;;;;4.33;4.03;;;19.60;99.90;;;;;;10407398;28;20307;-78
2022/06/13 02:00:32;;;;;;;5.83;5.47;;;19.60;99.90;;;;;;10396195;28;20237;-76
2022/06/13 02:05:42;;;;;;;5.23;4.83;;;19.60;99.90;;;;;;10405314;28;20202;-80
2022/06/13 02:10:47;;;;;;;4.43;4.13;;;19.70;99.90;;;;;;10412849;28;20220;-78
2022/06/13 02:15:54;;;;;;;4.30;4.00;;;19.60;99.90;;;;;;10413417;28;20221;-78
2022/06/13 02:21:01;;;;;;;4.97;4.57;;;19.70;99.90;;;;;;10405411;28;20228;-78
2022/06/13 02:26:06;;;;;;;6.30;5.80;;;19.70;99.90;;;;;;10404122;28;20288;-78
2022/06/13 02:31:12;;;;;;;6.23;5.20;;;19.80;99.90;;;;;;10412756;28;20548;-78
2022/06/13 02:36:22;;;;;;;5.63;5.13;;;19.80;99.90;;;;;;10397852;28;20198;-78
2022/06/13 02:41:29;;;;;;;5.33;4.90;;;19.80;99.90;;;;;;10411701;28;20296;-78
2022/06/13 02:46:35;;;;;;;5.23;4.80;;;19.70;99.90;;;;;;10406538;28;20222;-77
2022/06/13 02:51:47;;;;;;;4.30;4.00;;;19.80;99.90;;;;;;10408701;28;20282;-78
2022/06/13 02:57:25;;;;;;;5.60;5.10;;;19.70;99.90;;;;;;10399659;28;20241;-78
2022/06/13 03:02:36;;;;;;;4.27;3.97;;;19.60;99.90;;;;;;10382170;28;20220;-77
2022/06/13 03:07:49;;;;;;;4.83;4.37;;;19.60;99.90;;;;;;10396205;28;20305;-78
2022/06/13 03:12:58;;;;;;;5.00;4.10;;;19.50;99.90;;;;;;10408349;28;20622;-78
2022/06/13 03:18:06;;;;;;;4.83;4.40;;;19.50;99.90;;;;;;10416766;28;20249;-79
2022/06/13 03:23:14;;;;;;;5.50;4.93;;;19.50;99.90;;;;;;10419376;28;20245;-81
2022/06/13 03:28:22;;;;;;;4.23;3.83;;;19.50;99.90;;;;;;10418874;28;20256;-80
2022/06/13 03:33:43;;;;;;;4.23;3.83;;;19.50;99.90;;;;;;10413490;28;20206;-79
2022/06/13 03:38:51;;;;;;;3.77;3.57;;;19.50;99.90;;;;;;10409327;28;20275;-81
2022/06/13 03:43:58;;;;;;;10.53;7.50;;;19.50;99.90;;;;;;10415906;28;20256;-81
2022/06/13 03:49:04;;;;;;;6.83;5.00;;;19.40;99.90;;;;;;10398858;28;20248;-78
2022/06/13 03:54:13;;;;;;;5.70;4.67;;;19.30;99.90;;;;;;10409901;28;20202;-78
2022/06/13 03:59:20;;;;;;;5.30;4.17;;;19.20;99.90;;;;;;10405101;28;20284;-78
2022/06/13 04:04:26;;;;;;;4.80;4.00;;;19.20;99.90;;;;;;10406626;28;20213;-77
2022/06/13 04:09:33;;;;;;;4.20;3.80;;;19.20;99.90;;;;;;10405695;28;20288;-78
2022/06/13 04:14:58;;;;;;;3.63;3.33;;;19.10;99.90;;;;;;10408084;28;20732;-79
2022/06/13 04:20:07;;;;;;;5.20;3.90;;;19.10;99.90;;;;;;10389805;28;20249;-79
2022/06/13 04:25:21;;;;;;;3.70;3.40;;;19.00;99.90;;;;;;10412692;28;20202;-81
2022/06/13 04:30:26;;;;;;;7.27;4.10;;;18.90;99.90;;;;;;10411389;28;20230;-80
2022/06/13 04:35:30;;;;;;;5.53;3.43;;;18.80;99.90;;;;;;10410851;28;20603;-80
2022/06/13 04:40:35;;;;;;;4.83;3.87;;;18.80;99.90;;;;;;10407132;28;20236;-78
2022/06/13 04:45:49;;;;;;;6.93;4.00;;;18.80;99.90;;;;;;10379240;28;20205;-78
2022/06/13 04:50:54;;;;;;;4.23;3.80;;;18.80;99.90;;;;;;10386959;28;20221;-79
2022/06/13 04:55:59;;;;;;;5.10;3.80;;;18.80;99.90;;;;;;10405932;28;20829;-79
2022/06/13 05:01:05;;;;;;;6.83;4.50;;;18.80;99.90;;;;;;10409146;28;20228;-79
2022/06/13 05:06:20;;;;;;;4.13;3.50;;;18.80;99.90;;;;;;10409247;28;20193;-79
2022/06/13 05:11:28;;;;;;;5.63;3.87;;;18.80;99.90;;;;;;10405761;28;20194;-78
2022/06/13 05:16:41;;;;;;;5.30;4.00;;;18.80;99.90;;;;;;10412190;28;20230;-78
2022/06/13 05:21:53;;;;;;;6.27;4.30;;;18.80;99.90;;;;;;10413845;28;20275;-78
2022/06/13 05:26:56;;;;;;;4.53;3.60;;;18.80;99.90;;;;;;10414536;28;20222;-78
2022/06/13 05:31:58;;;;;;;4.87;3.90;;;18.80;99.90;;;;;;10415872;28;20208;-79
2022/06/13 05:37:02;;;;;;;4.43;4.03;;;18.70;99.90;;;;;;10397255;28;20271;-81
2022/06/13 05:42:06;;;;;;;4.10;3.70;;;18.70;99.90;;;;;;10419267;28;20236;-78
2022/06/13 05:47:13;;;;;;;4.67;4.20;;;18.70;99.90;;;;;;10423251;28;20242;-79
2022/06/13 05:52:15;;;;;;;4.43;3.70;;;18.70;99.90;;;;;;10400449;28;20281;-81
2022/06/13 05:57:19;;;;;;;6.13;4.30;;;18.80;99.90;;;;;;10412870;28;20595;-80
2022/06/13 06:02:21;;;;;;;7.60;4.23;;;18.80;99.90;;;;;;10412574;28;20636;-80
2022/06/13 06:07:23;;;;;;;5.77;3.80;;;18.70;99.90;;;;;;10414144;28;20221;-79
2022/06/13 06:12:26;;;;;;;10.30;5.70;;;18.80;99.90;;;;;;10420705;28;20190;-81
2022/06/13 06:17:28;;;;;;;5.70;3.73;;;18.70;99.90;;;;;;10418946;28;20321;-77
2022/06/13 06:22:31;;;;;;;8.37;4.40;;;18.80;99.90;;;;;;10414683;28;20743;-77
2022/06/13 06:27:34;;;;;;;4.27;3.87;;;18.80;99.90;;;;;;10407071;28;20785;-77
2022/06/13 06:32:36;;;;;;;5.20;4.10;;;18.90;99.90;;;;;;10409273;28;20304;-78
2022/06/13 06:37:39;;;;;;;6.60;4.20;;;19.00;99.90;;;;;;10409940;28;20222;-78
2022/06/13 06:42:44;;;;;;;3.73;3.27;;;19.10;99.90;;;;;;10412490;28;20229;-77
2022/06/13 06:47:46;;;;;;;4.37;3.33;;;19.30;99.90;;;;;;10413175;28;20279;-77
2022/06/13 06:52:49;;;;;;;3.97;3.53;;;19.60;99.90;;;;;;10404957;28;20197;-77
2022/06/13 07:03:12;;;;;;;5.10;4.00;;;20.10;99.90;;;;;;10396206;28;20697;-78
2022/06/13 07:08:15;;;;;;;5.20;3.50;;;20.30;99.90;;;;;;10408243;28;20667;-78
2022/06/13 07:13:20;;;;;;;4.33;3.40;;;20.60;99.90;;;;;;10412633;28;20252;-77
2022/06/13 07:18:22;;;;;;;5.00;3.20;;;20.80;99.70;;;;;;10403081;28;20717;-77
2022/06/13 07:23:24;;;;;;;3.50;3.23;;;21.00;99.70;;;;;;10405473;28;20289;-77
2022/06/13 07:28:27;;;;;;;5.53;3.10;;;21.30;98.60;;;;;;10394678;28;20226;-77
2022/06/13 07:33:29;;;;;;;10.07;4.83;;;21.50;99.00;;;;;;10373506;28;20242;-77
2022/06/13 07:38:31;;;;;;;4.00;3.20;;;21.70;96.10;;;;;;10363769;28;20671;-78
2022/06/13 07:43:37;;;;;;;4.40;3.87;;;22.00;96.90;;;;;;10390250;28;20203;-80
2022/06/13 07:48:40;;;;;;;11.03;3.97;;;22.40;96.90;;;;;;10406698;28;20230;-80
2022/06/13 07:53:42;;;;;;;3.30;3.00;;;22.80;95.00;;;;;;10418043;28;20206;-80
2022/06/13 07:58:49;;;;;;;7.23;4.00;;;23.30;94.00;;;;;;10416543;28;20755;-79
2022/06/13 08:03:52;;;;;;;6.17;3.70;;;23.90;92.50;;;;;;10380933;28;20576;-80
2022/06/13 08:08:55;;;;;;;4.07;2.87;;;24.40;92.70;;;;;;10396259;28;20218;-79
2022/06/13 08:13:59;;;;;;;4.10;3.73;;;25.00;91.00;;;;;;10378271;28;20255;-79
2022/06/13 08:19:01;;;;;;;4.40;3.13;;;25.60;89.00;;;;;;10403190;28;20237;-79
2022/06/13 08:24:04;;;;;;;3.40;3.10;;;26.30;85.10;;;;;;10406577;28;20197;-78
2022/06/13 08:29:08;;;;;;;3.53;3.23;;;26.60;83.50;;;;;;10402863;28;20225;-78
2022/06/13 08:34:10;;;;;;;4.47;3.50;;;26.70;79.40;;;;;;10391102;28;20636;-78
2022/06/13 08:39:12;;;;;;;4.37;3.77;;;26.40;79.20;;;;;;10400295;28;20260;-78
2022/06/13 08:44:33;;;;;;;3.73;3.17;;;26.30;76.20;;;;;;10405915;28;20661;-77
2022/06/13 08:49:41;;;;;;;3.50;3.30;;;26.60;78.40;;;;;;10408609;28;20220;-77
2022/06/13 08:54:47;;;;;;;6.27;3.87;;;27.10;73.80;;;;;;10401674;28;20566;-78
2022/06/13 08:59:55;;;;;;;3.87;3.40;;;27.50;73.20;;;;;;10396611;28;20221;-78
2022/06/13 09:05:04;;;;;;;10.00;4.83;;;27.80;73.10;;;;;;10405904;28;20284;-78
2022/06/13 09:10:10;;;;;;;5.03;3.33;;;27.90;71.20;;;;;;10406666;28;20306;-77
2022/06/13 09:15:17;;;;;;;5.40;3.50;;;27.60;72.40;;;;;;10407217;28;20626;-78
2022/06/13 09:20:25;;;;;;;3.03;2.37;;;27.40;71.70;;;;;;10402529;28;20230;-78
2022/06/13 09:25:40;;;;;;;3.17;2.87;;;;;;;;;;10404481;28;20237;-79
2022/06/13 09:30:48;;;;;;;3.33;2.93;;;28.40;82.30;;;;;;10398555;28;20248;-78
2022/06/13 09:35:57;;;;;;;4.37;2.50;;;29.20;64.40;;;;;;10403077;28;20233;-78
2022/06/13 09:41:11;;;;;;;2.50;2.30;;;30.10;62.70;;;;;;10408501;28;20308;-78
2022/06/13 09:46:22;;;;;;;5.77;2.47;;;30.50;60.30;;;;;;10404406;28;20205;-79
2022/06/13 09:51:38;;;;;;;6.27;2.87;;;31.70;59.00;;;;;;10411274;28;20688;-78
2022/06/13 09:56:58;;;;;;;2.80;2.60;;;32.60;54.70;;;;;;10412887;28;20315;-78
2022/06/13 10:02:10;;;;;;;5.23;2.90;;;33.50;53.60;;;;;;10375741;28;20237;-78
2022/06/13 10:07:18;;;;;;;2.53;2.33;;;33.70;52.50;;;;;;10373847;28;20214;-78
2022/06/13 10:12:29;;;;;;;4.73;2.43;;;33.30;52.50;;;;;;10389613;28;20193;-81
2022/06/13 10:17:49;;;;;;;3.93;2.73;;;33.40;52.40;;;;;;10372754;28;20262;-79
2022/06/13 10:22:59;;;;;;;2.87;2.07;;;32.90;51.70;;;;;;10382070;28;20327;-78
2022/06/13 10:28:15;;;;;;;2.67;2.47;;;31.80;52.00;;;;;;10397024;28;20226;-78
2022/06/13 10:33:32;;;;;;;3.57;2.67;;;30.70;52.70;;;;;;10377718;28;20292;-78
2022/06/13 10:38:56;;;;;;;2.40;2.00;;;29.50;53.40;;;;;;10374736;28;20264;-77
2022/06/13 10:44:01;;;;;;;2.50;2.30;;;28.50;55.00;;;;;;10371074;28;20241;-78
2022/06/13 10:49:10;;;;;;;2.80;2.60;;;27.70;55.20;;;;;;10376895;28;20619;-78
2022/06/13 10:54:16;;;;;;;4.60;2.57;;;27.20;57.00;;;;;;10361422;28;20290;-77
2022/06/13 10:59:23;;;;;;;3.70;2.63;;;26.60;56.10;;;;;;10379527;28;20606;-78
2022/06/13 11:04:28;;;;;;;11.17;5.37;;;26.10;57.40;;;;;;10372494;28;20693;-78
2022/06/13 11:09:36;;;;;;;3.77;3.50;;;25.70;56.30;;;;;;10380639;28;20783;-79
2022/06/13 11:22:37;;;;;;;3.20;2.90;;;25.30;58.50;;;;;;10382475;28;20630;-79
2022/06/13 11:25:30;;;;;;;4.40;3.60;;;24.70;59.20;;;;;;10373761;28;20206;-77
2022/06/13 11:30:44;;;;;;;3.00;2.80;;;24.50;60.30;;;;;;10388977;28;20228;-80
2022/06/13 11:35:50;;;;;;;3.93;3.40;;;24.40;61.00;;;;;;10376577;28;20210;-77
2022/06/13 11:41:05;;;;;;;3.63;2.97;;;24.30;58.00;;;;;;10366346;28;20706;-78
2022/06/13 11:46:16;;;;;;;4.60;2.63;;;24.20;61.00;;;;;;10373286;28;20592;-79
2022/06/13 11:51:23;;;;;;;4.40;3.10;;;24.40;59.80;;;;;;10391911;28;20578;-78
2022/06/13 11:56:28;;;;;;;2.73;2.53;;;24.60;61.50;;;;;;10389296;28;20264;-77
2022/06/13 12:01:32;;;;;;;6.23;3.40;;;24.80;59.20;;;;;;10393638;28;20291;-78
2022/06/13 12:06:40;;;;;;;3.87;3.50;;;24.80;60.00;;;;;;10390785;28;20632;-80
2022/06/13 12:11:45;;;;;;;4.10;3.57;;;24.80;61.50;;;;;;10401271;28;20193;-80
2022/06/13 12:16:56;;;;;;;4.63;2.57;;;24.80;61.90;;;;;;10413989;28;20312;-77
2022/06/13 12:22:06;;;;;;;2.90;2.70;;;25.00;59.40;;;;;;10406180;28;20273;-78
2022/06/13 12:27:26;;;;;;;2.93;2.43;;;25.00;59.10;;;;;;10408372;28;20225;-77
2022/06/13 12:32:32;;;;;;;5.83;2.77;;;24.80;57.70;;;;;;10409212;28;20798;-77
2022/06/13 12:37:46;;;;;;;2.90;2.70;;;24.70;58.50;;;;;;10393602;28;20744;-80
2022/06/13 12:43:05;;;;;;;2.63;2.50;;;24.70;58.30;;;;;;10403136;28;20308;-77
2022/06/13 12:48:29;;;;;;;2.40;2.27;;;24.80;58.30;;;;;;10404241;28;20261;-78
2022/06/13 12:54:00;;;;;;;3.17;2.70;;;24.80;57.70;;;;;;10406572;28;20308;-77
2022/06/13 12:59:18;;;;;;;2.37;2.10;;;24.90;56.40;;;;;;10405486;28;20308;-79
2022/06/13 13:04:43;;;;;;;4.50;2.70;;;24.80;56.40;;;;;;10410138;28;20709;-79
2022/06/13 13:10:09;;;;;;;2.73;2.40;;;24.70;57.10;;;;;;10410827;28;20257;-79
2022/06/13 13:15:18;;;;;;;2.40;2.30;;;24.70;57.80;;;;;;10402563;28;20619;-79
2022/06/13 13:20:25;;;;;;;2.97;2.27;;;24.60;57.10;;;;;;10415283;28;20222;-79
2022/06/13 13:25:35;;;;;;;2.70;2.50;;;24.60;56.50;;;;;;10418400;28;20651;-76
2022/06/13 13:30:46;;;;;;;2.57;2.37;;;24.50;57.50;;;;;;10406596;28;20276;-79
2022/06/13 13:35:55;;;;;;;5.57;2.90;;;24.50;58.40;;;;;;10415155;28;20194;-77
2022/06/13 13:41:02;;;;;;;2.10;2.00;;;24.50;57.10;;;;;;10424783;28;20226;-79
2022/06/13 13:46:11;;;;;;;2.50;2.23;;;24.50;57.90;;;;;;10423373;28;20290;-78
2022/06/13 13:51:20;;;;;;;2.40;2.20;;;24.50;58.40;;;;;;10414844;28;20281;-79
2022/06/13 13:56:29;;;;;;;2.30;2.20;;;24.60;57.30;;;;;;10417644;28;20230;-79
2022/06/13 14:01:47;;;;;;;3.67;2.63;;;24.70;56.20;;;;;;10418637;28;20300;-79
2022/06/13 14:06:55;;;;;;;4.00;2.10;;;24.80;57.20;;;;;;10415461;28;20698;-79
2022/06/13 14:12:08;;;;;;;2.70;2.50;;;24.80;56.20;;;;;;10421741;28;20604;-79
2022/06/13 14:17:11;;;;;;;2.50;2.30;;;24.80;57.20;;;;;;10414938;28;20236;-79
2022/06/13 14:22:19;;;;;;;2.83;2.53;;;24.80;56.60;;;;;;10417136;28;20249;-78
2022/06/13 14:27:23;;;;;;;5.73;2.40;;;24.70;56.50;;;;;;10418482;28;20222;-78
2022/06/13 14:32:37;;;;;;;2.60;2.40;;;24.70;57.00;;;;;;10417110;28;20202;-78
2022/06/13 14:38:24;;;;;;;2.57;2.37;;;24.70;56.10;;;;;;10420430;28;20597;-79
2022/06/13 14:43:41;;;;;;;2.60;2.40;;;24.60;57.10;;;;;;10415028;28;20253;-79
2022/06/13 14:48:49;;;;;;;2.90;2.60;;;24.50;57.10;;;;;;10416511;28;20650;-79
2022/06/13 14:53:53;;;;;;;2.83;2.63;;;24.50;56.70;;;;;;10415502;28;20280;-79
2022/06/13 14:58:59;;;;;;;3.20;2.50;;;24.50;57.50;;;;;;10403217;28;20214;-79
2022/06/13 15:04:24;;;;;;;2.53;2.13;;;24.40;56.80;;;;;;10401525;28;20333;-79
2022/06/13 15:09:31;;;;;;;3.63;1.80;;;24.40;56.90;;;;;;10410953;28;20642;-78
2022/06/13 15:14:43;;;;;;;2.60;2.40;;;24.30;58.20;;;;;;10392205;28;20246;-79
2022/06/13 15:19:48;;;;;;;2.70;2.30;;;24.30;57.00;;;;;;10392865;28;20311;-79
2022/06/13 15:24:52;;;;;;;2.47;2.27;;;24.20;57.40;;;;;;10405321;28;20201;-78
2022/06/13 15:30:15;;;;;;;2.70;2.30;;;24.20;57.80;;;;;;10397491;28;20620;-80
2022/06/13 15:35:20;;;;;;;2.47;1.90;;;24.20;55.90;;;;;;10378953;28;20260;-78
2022/06/13 15:40:25;;;;;;;2.33;2.23;;;24.00;57.80;;;;;;10412997;28;20222;-79
2022/06/13 15:45:32;;;;;;;2.43;2.33;;;24.00;57.30;;;;;;10399588;28;20245;-79
2022/06/13 15:50:35;;;;;;;2.23;2.00;;;24.00;58.30;;;;;;10398055;28;20283;-79
2022/06/13 15:55:48;;;;;;;3.70;2.47;;;23.90;58.70;;;;;;10389595;28;20673;-79
2022/06/13 16:00:53;;;;;;;2.73;2.20;;;23.80;58.10;;;;;;10394336;28;20226;-77
2022/06/13 16:05:56;;;;;;;2.60;2.37;;;23.80;56.90;;;;;;10398138;28;20722;-79
2022/06/13 16:11:01;;;;;;;2.20;2.03;;;23.60;59.10;;;;;;10392016;28;20678;-78
2022/06/13 16:16:07;;;;;;;2.50;2.30;;;23.60;56.10;;;;;;10392764;28;20228;-78
2022/06/13 16:21:11;;;;;;;3.67;2.67;;;23.60;56.30;;;;;;10391897;28;20536;-78
2022/06/13 16:26:14;;;;;;;3.80;2.37;;;23.50;57.40;;;;;;10387284;28;20248;-78
2022/06/13 16:31:18;;;;;;;2.40;2.20;;;23.50;56.30;;;;;;10396515;28;20206;-78
2022/06/13 16:36:36;;;;;;;3.33;3.03;;;23.40;57.30;;;;;;10396458;28;20225;-79
2022/06/13 16:41:41;;;;;;;3.00;2.50;;;23.40;56.00;;;;;;10405141;28;20743;-79
2022/06/13 16:46:47;;;;;;;2.40;2.30;;;23.30;55.90;;;;;;10406467;28;20221;-76
2022/06/13 16:51:57;;;;;;;2.80;2.60;;;23.30;55.60;;;;;;10390201;28;20201;-78
2022/06/13 16:56:59;;;;;;;3.73;3.20;;;23.10;58.00;;;;;;10402121;28;20588;-78
2022/06/13 17:02:03;;;;;;;2.50;2.20;;;23.20;58.00;;;;;;10400957;28;20786;-78
2022/06/13 17:07:16;;;;;;;2.63;2.40;;;23.20;56.40;;;;;;10391042;28;20301;-78
2022/06/13 17:12:18;;;;;;;2.20;2.10;;;23.00;57.60;;;;;;10417931;28;20194;-79
2022/06/13 17:17:31;;;;;;;5.07;2.43;;;23.00;56.60;;;;;;10402892;28;20226;-78
2022/06/13 17:22:33;;;;;;;2.53;2.17;;;22.90;58.00;;;;;;10373442;28;20225;-78
2022/06/13 17:32:57;;;;;;;4.13;2.67;;;22.80;58.60;;;;;;10368960;28;20241;-78
2022/06/13 17:37:59;;;;;;;2.40;2.20;;;22.80;60.50;;;;;;10370297;28;20750;-80
2022/06/13 17:43:02;;;;;;;3.10;2.70;;;22.80;59.90;;;;;;10371421;28;20230;-77
2022/06/13 17:48:07;;;;;;;3.13;2.83;;;22.80;58.80;;;;;;10378461;28;20224;-81
2022/06/13 17:53:10;;;;;;;4.20;2.93;;;22.80;58.70;;;;;;10375936;28;20655;-80
2022/06/13 17:58:12;;;;;;;2.63;2.13;;;22.80;60.30;;;;;;10376527;28;20313;-80
2022/06/13 18:03:17;;;;;;;3.00;2.90;;;22.80;57.90;;;;;;10375806;28;20222;-81
2022/06/13 18:08:25;;;;;;;3.40;2.83;;;22.70;56.70;;;;;;10378905;28;20210;-80
2022/06/13 18:13:27;;;;;;;2.93;2.67;;;22.70;57.60;;;;;;10375221;28;20210;-79
2022/06/13 18:18:34;;;;;;;2.83;2.63;;;22.70;57.30;;;;;;10377014;28;20230;-81
2022/06/13 18:23:38;;;;;;;2.80;2.60;;;22.60;57.90;;;;;;10375077;28;20227;-80
2022/06/13 18:28:41;;;;;;;3.20;2.90;;;22.60;59.30;;;;;;10373788;28;20217;-79
2022/06/13 18:33:44;;;;;;;3.33;3.03;;;22.50;57.40;;;;;;10369248;28;20195;-78
2022/06/13 18:38:47;;;;;;;3.00;2.80;;;22.50;57.00;;;;;;10370269;28;20309;-79
2022/06/13 18:43:53;;;;;;;3.13;2.93;;;22.40;58.10;;;;;;10381988;28;20225;-79
2022/06/13 18:48:59;;;;;;;3.60;3.40;;;22.30;60.20;;;;;;10405122;28;20706;-78
2022/06/13 18:54:01;;;;;;;3.00;2.40;;;22.30;59.00;;;;;;10377140;28;20718;-79
2022/06/13 18:59:03;;;;;;;3.53;3.23;;;22.30;59.70;;;;;;10386268;28;20217;-79
2022/06/13 19:04:12;;;;;;;3.30;3.10;;;22.20;62.00;;;;;;10384146;28;20299;-78
2022/06/13 19:09:18;;;;;;;3.50;2.90;;;22.20;62.00;;;;;;10393113;28;20287;-79
2022/06/13 19:14:26;;;;;;;4.70;3.50;;;22.10;60.20;;;;;;10398915;28;20277;-81
2022/06/13 19:19:31;;;;;;;3.83;3.53;;;22.00;60.60;;;;;;10388564;28;20233;-79
2022/06/13 19:24:35;;;;;;;4.07;3.67;;;21.90;60.40;;;;;;10391004;28;20237;-79
2022/06/13 19:29:41;;;;;;;3.60;3.30;;;21.90;59.50;;;;;;10390857;28;20227;-79
2022/06/13 19:34:47;;;;;;;3.57;3.33;;;21.90;59.00;;;;;;10391195;28;20206;-78
2022/06/13 19:39:54;;;;;;;3.50;3.20;;;21.80;61.20;;;;;;10394620;28;20301;-78
2022/06/13 19:44:56;;;;;;;4.30;3.67;;;21.70;64.10;;;;;;10400521;28;20683;-80
2022/06/13 19:50:00;;;;;;;4.17;3.87;;;21.60;62.50;;;;;;10408469;28;20225;-79
2022/06/13 19:55:09;;;;;;;4.40;4.00;;;21.60;62.40;;;;;;10414629;28;20533;-79
2022/06/13 20:00:12;;;;;;;3.90;3.60;;;21.50;63.70;;;;;;10403583;28;20226;-77
2022/06/13 20:05:16;;;;;;;3.60;3.30;;;21.40;65.80;;;;;;10399791;28;20686;-77
2022/06/13 20:10:23;;;;;;;4.50;4.10;;;21.40;66.20;;;;;;10399406;28;20233;-78
2022/06/13 20:15:27;;;;;;;4.30;3.90;;;21.20;67.20;;;;;;10398350;28;20206;-78
2022/06/13 20:20:32;;;;;;;3.77;3.33;;;21.00;66.80;;;;;;10400965;28;20718;-78
2022/06/13 20:25:36;;;;;;;3.40;3.00;;;20.80;67.50;;;;;;10400873;28;20272;-77
2022/06/13 20:30:41;;;;;;;4.20;3.60;;;20.60;68.00;;;;;;10396269;28;20324;-78
2022/06/13 20:35:46;;;;;;;4.13;3.63;;;20.50;69.90;;;;;;10385228;28;20678;-78
2022/06/13 20:40:49;;;;;;;5.20;3.70;;;20.40;70.30;;;;;;10397152;28;20791;-78
2022/06/13 20:45:52;;;;;;;4.17;3.77;;;20.20;70.30;;;;;;10399365;28;20226;-79
2022/06/13 20:50:57;;;;;;;4.03;3.50;;;20.20;70.70;;;;;;10402129;28;20693;-78
2022/06/13 20:55:59;;;;;;;4.07;3.50;;;20.10;71.00;;;;;;10398749;28;20298;-80
2022/06/13 21:01:04;;;;;;;3.90;3.60;;;20.00;71.10;;;;;;10402811;28;20225;-79
2022/06/13 21:06:09;;;;;;;4.07;3.23;;;20.00;72.20;;;;;;10401190;28;20658;-79
2022/06/13 21:11:12;;;;;;;4.27;3.77;;;19.90;71.70;;;;;;10406128;28;20198;-80
2022/06/13 21:16:14;;;;;;;3.77;3.50;;;19.80;72.40;;;;;;10409866;28;20662;-80
2022/06/13 21:21:17;;;;;;;4.50;4.10;;;19.70;73.70;;;;;;10401547;28;20220;-80
2022/06/13 21:26:20;;;;;;;4.83;4.33;;;19.60;73.30;;;;;;10404950;28;20197;-79
2022/06/13 21:31:22;;;;;;;3.50;3.20;;;19.40;74.30;;;;;;10410712;28;20243;-80
2022/06/13 21:36:25;;;;;;;4.80;4.00;;;19.40;75.50;;;;;;10404272;28;20691;-80
2022/06/13 21:41:28;;;;;;;4.70;4.30;;;19.30;75.40;;;;;;10411110;28;20593;-79
2022/06/13 21:46:30;;;;;;;4.37;4.03;;;19.20;76.20;;;;;;10409233;28;20599;-80
2022/06/13 21:51:35;;;;;;;7.13;4.07;;;19.20;77.50;;;;;;10414489;28;20212;-79
2022/06/13 21:56:38;;;;;;;3.50;3.20;;;19.10;76.70;;;;;;10412050;28;20638;-78
2022/06/13 22:01:41;;;;;;;5.40;4.03;;;19.10;76.20;;;;;;10414494;28;20214;-80
2022/06/13 22:06:46;;;;;;;5.93;4.30;;;19.10;77.50;;;;;;10422620;28;20233;-79
2022/06/13 22:11:48;;;;;;;4.70;4.13;;;19.00;78.30;;;;;;10407454;28;20205;-79
2022/06/13 22:16:50;;;;;;;6.90;4.60;;;19.00;79.00;;;;;;10408004;28;20256;-79
2022/06/13 22:21:54;;;;;;;5.00;4.60;;;19.00;78.60;;;;;;10411815;28;20206;-79
2022/06/13 22:26:56;;;;;;;5.30;4.33;;;19.00;77.90;;;;;;10412769;28;20226;-79
2022/06/13 22:31:58;;;;;;;4.20;3.90;;;18.90;77.10;;;;;;10413982;28;20288;-79
2022/06/13 22:37:01;;;;;;;4.93;3.83;;;18.90;79.20;;;;;;10406328;28;20594;-79
2022/06/13 22:42:04;;;;;;;5.43;3.93;;;18.80;79.60;;;;;;10408582;28;20705;-79
2022/06/13 22:52:30;;;;;;;7.40;4.43;;;18.70;79.60;;;;;;10411143;28;20206;-79
2022/06/13 22:57:32;;;;;;;4.20;3.90;;;18.60;80.80;;;;;;10413164;28;20309;-78
2022/06/13 23:02:34;;;;;;;7.10;4.63;;;18.60;80.00;;;;;;10389663;28;20880;-79
2022/06/13 23:07:38;;;;;;;4.60;4.20;;;18.50;81.50;;;;;;10402030;28;20229;-76
2022/06/13 23:12:40;;;;;;;4.33;3.90;;;18.50;81.70;;;;;;10387016;28;20252;-78
2022/06/13 23:17:42;;;;;;;5.00;4.30;;;18.40;81.40;;;;;;10404718;28;20233;-77
2022/06/13 23:22:45;;;;;;;6.63;4.30;;;18.40;81.50;;;;;;10399264;28;20233;-77
2022/06/13 23:27:47;;;;;;;5.57;4.53;;;18.20;81.80;;;;;;10399616;28;20276;-77
2022/06/13 23:32:50;;;;;;;5.40;5.00;;;18.20;81.20;;;;;;10401530;28;20205;-76
2022/06/13 23:37:53;;;;;;;5.00;4.50;;;18.20;82.70;;;;;;10380472;28;20697;-77
2022/06/13 23:42:55;;;;;;;8.30;4.77;;;18.10;82.50;;;;;;10365408;28;20223;-76
2022/06/13 23:47:57;;;;;;;5.03;4.53;;;18.00;83.90;;;;;;10397232;28;20770;-77
2022/06/13 23:53:01;;;;;;;4.47;4.07;;;18.00;83.90;;;;;;10406423;28;20197;-77
2022/06/13 23:58:04;;;;;;;4.10;3.70;;;18.00;84.40;;;;;;10407891;28;20217;-78
